Time;durP1;ratioP1;P1;durP2;ratioP2;P2;SDS_P1;SDS_P2;PMS_P1;PMS_P2;Temp;Humidity;BMP_temperature;BMP_pressure;BME280_temperature;BME280_humidity;BME280_pressure;Samples;Min_cycle;Max_cycle;Signal;HPM_P1;HPM_P2
2022/07/18 00:02:06;;;;;;;8.57;3.80;;;19.10;99.90;;;;;;5034764;28;20517;-50
2022/07/18 00:04:33;;;;;;;3.90;2.63;;;19.10;99.90;;;;;;5034654;28;20521;-51
2022/07/18 00:07:03;;;;;;;7.23;3.00;;;19.10;99.90;;;;;;5034517;28;20472;-54
2022/07/18 00:09:32;;;;;;;3.87;2.60;;;19.10;99.90;;;;;;5034765;28;20513;-49
2022/07/18 00:11:59;;;;;;;4.90;2.73;;;19.10;99.90;;;;;;5034718;28;20552;-50
2022/07/18 00:14:25;;;;;;;5.43;2.37;;;19.10;99.90;;;;;;5034523;28;20489;-53
2022/07/18 00:16:54;;;;;;;5.00;2.50;;;19.10;99.90;;;;;;5034757;28;20496;-50
2022/07/18 00:19:24;;;;;;;4.00;2.63;;;19.10;99.90;;;;;;5035545;28;20433;-53
2022/07/18 00:21:54;;;;;;;4.20;2.30;;;19.10;99.90;;;;;;5035780;28;20445;-52
2022/07/18 00:24:22;;;;;;;7.40;2.80;;;19.20;99.90;;;;;;5035875;28;20421;-53
2022/07/18 00:26:49;;;;;;;6.10;2.77;;;19.10;99.90;;;;;;5034633;28;20453;-54
2022/07/18 00:29:15;;;;;;;3.00;2.07;;;19.20;99.90;;;;;;5035592;28;20448;-49
2022/07/18 00:31:42;;;;;;;4.67;2.17;;;19.20;99.90;;;;;;5035372;28;20487;-53
2022/07/18 00:34:09;;;;;;;4.97;2.70;;;19.20;99.90;;;;;;5035428;28;20482;-54
2022/07/18 00:36:36;;;;;;;4.00;2.83;;;19.20;99.90;;;;;;5035302;28;20667;-55
2022/07/18 00:39:04;;;;;;;4.60;2.00;;;19.20;99.90;;;;;;5035179;28;20492;-55
2022/07/18 00:41:32;;;;;;;2.23;1.93;;;19.20;99.90;;;;;;5035712;28;20476;-57
2022/07/18 00:43:59;;;;;;;4.93;3.40;;;19.20;99.90;;;;;;5035422;28;20451;-52
2022/07/18 00:46:27;;;;;;;5.00;2.53;;;19.20;99.90;;;;;;5034830;28;20496;-52
2022/07/18 00:48:55;;;;;;;6.17;3.00;;;19.20;99.90;;;;;;5034761;28;20457;-51
2022/07/18 00:51:22;;;;;;;6.47;2.77;;;19.20;99.90;;;;;;5034813;28;20480;-54
2022/07/18 00:53:50;;;;;;;3.43;2.27;;;19.20;99.90;;;;;;5034806;28;20472;-55
2022/07/18 00:56:19;;;;;;;4.83;2.60;;;19.10;99.90;;;;;;5035745;28;20472;-57
2022/07/18 00:58:47;;;;;;;4.63;2.30;;;19.10;99.90;;;;;;5038881;28;20461;-53
2022/07/18 01:03:58;;;;;;;3.90;2.60;;;19.00;99.90;;;;;;5038821;28;20470;-52
2022/07/18 01:06:25;;;;;;;4.40;2.30;;;19.00;99.90;;;;;;5038531;28;20453;-52
2022/07/18 01:08:52;;;;;;;3.37;2.20;;;18.90;99.90;;;;;;5038590;28;20528;-54
2022/07/18 01:11:19;;;;;;;3.97;2.47;;;18.90;99.90;;;;;;5038304;28;20479;-51
2022/07/18 01:13:49;;;;;;;3.70;2.53;;;18.80;99.90;;;;;;5038246;28;20516;-54
2022/07/18 01:16:17;;;;;;;4.83;2.57;;;18.80;99.90;;;;;;5038260;28;20413;-55
2022/07/18 01:19:02;;;;;;;3.30;2.00;;;18.80;99.90;;;;;;5037872;28;20499;-56
2022/07/18 01:21:30;;;;;;;5.00;3.07;;;18.70;99.90;;;;;;5038181;28;20413;-55
2022/07/18 01:23:57;;;;;;;3.50;2.60;;;18.70;99.90;;;;;;5038383;28;20468;-54
2022/07/18 01:26:24;;;;;;;4.20;2.27;;;18.70;99.90;;;;;;5038578;28;20516;-56
2022/07/18 01:28:51;;;;;;;3.67;2.50;;;18.70;99.90;;;;;;5037875;28;20455;-55
2022/07/18 01:31:18;;;;;;;3.40;2.07;;;18.60;99.90;;;;;;5037753;28;20481;-50
2022/07/18 01:33:45;;;;;;;9.13;2.37;;;18.60;99.90;;;;;;5037434;28;20456;-54
2022/07/18 01:36:12;;;;;;;7.23;2.50;;;18.60;99.90;;;;;;5036925;28;20441;-55
2022/07/18 01:38:40;;;;;;;3.63;2.20;;;18.50;99.90;;;;;;5036794;28;20497;-52
2022/07/18 01:41:07;;;;;;;4.83;2.03;;;18.50;99.90;;;;;;5037255;28;20472;-57
2022/07/18 01:43:37;;;;;;;3.97;2.60;;;18.50;99.90;;;;;;5037096;28;20476;-54
2022/07/18 01:46:05;;;;;;;5.10;2.30;;;18.50;99.90;;;;;;5036576;28;20429;-54
2022/07/18 01:48:31;;;;;;;3.80;2.13;;;18.50;99.90;;;;;;5036506;28;20461;-51
2022/07/18 01:50:58;;;;;;;4.70;2.40;;;18.50;99.90;;;;;;5036401;28;20461;-52
2022/07/18 01:53:25;;;;;;;2.57;1.83;;;18.40;99.90;;;;;;5036745;28;20513;-57
2022/07/18 01:55:54;;;;;;;3.40;2.50;;;18.40;99.90;;;;;;5037503;28;20439;-51
2022/07/18 01:58:20;;;;;;;5.93;2.67;;;18.30;99.90;;;;;;5036838;28;20468;-49
2022/07/18 02:00:47;;;;;;;2.60;1.97;;;18.30;99.90;;;;;;5036825;28;20890;-47
2022/07/18 02:03:14;;;;;;;2.60;1.87;;;18.30;99.90;;;;;;5035888;28;20508;-50
2022/07/18 02:05:41;;;;;;;3.70;2.00;;;18.20;99.90;;;;;;5035837;28;20468;-59
2022/07/18 02:08:08;;;;;;;3.20;2.20;;;18.20;99.90;;;;;;5035155;28;20464;-54
2022/07/18 02:10:36;;;;;;;3.23;2.30;;;18.20;99.90;;;;;;5036111;28;20465;-55
2022/07/18 02:13:05;;;;;;;5.23;2.40;;;18.10;99.90;;;;;;5036408;28;20441;-56
2022/07/18 02:15:32;;;;;;;6.03;4.87;;;18.00;99.90;;;;;;5036455;28;20456;-55
2022/07/18 02:18:00;;;;;;;3.70;2.30;;;18.00;99.90;;;;;;5036031;28;20505;-52
2022/07/18 02:20:27;;;;;;;3.63;2.00;;;18.00;99.90;;;;;;5035915;28;20469;-58
2022/07/18 02:22:54;;;;;;;3.37;1.77;;;17.90;99.90;;;;;;5035859;28;20481;-54
2022/07/18 02:25:21;;;;;;;4.47;2.03;;;17.90;99.90;;;;;;5035833;28;20533;-55
2022/07/18 02:27:48;;;;;;;2.83;1.70;;;17.80;99.90;;;;;;5036451;28;20515;-53
2022/07/18 02:30:16;;;;;;;6.70;2.50;;;17.80;99.90;;;;;;5035828;28;20588;-48
2022/07/18 02:32:43;;;;;;;2.73;2.07;;;17.80;99.90;;;;;;5036099;28;20592;-54
2022/07/18 02:35:10;;;;;;;5.47;2.37;;;17.70;99.90;;;;;;5036408;28;20464;-52
2022/07/18 02:37:37;;;;;;;3.40;2.20;;;17.70;99.90;;;;;;5035979;28;20476;-51
2022/07/18 02:40:06;;;;;;;2.30;2.10;;;17.70;99.90;;;;;;5035649;28;20517;-50
2022/07/18 02:42:33;;;;;;;6.90;1.93;;;17.60;99.90;;;;;;5035258;28;20445;-52
2022/07/18 02:45:00;;;;;;;2.90;2.17;;;17.60;99.90;;;;;;5035560;28;20533;-52
2022/07/18 02:47:28;;;;;;;5.50;1.80;;;17.50;99.90;;;;;;5035396;28;20464;-54
2022/07/18 02:49:55;;;;;;;2.90;1.80;;;17.50;99.90;;;;;;5035691;28;20524;-52
2022/07/18 02:52:22;;;;;;;3.23;2.10;;;17.50;99.90;;;;;;5035078;28;20469;-54
2022/07/18 02:54:49;;;;;;;3.40;1.90;;;17.50;99.90;;;;;;5035172;28;20461;-52
2022/07/18 02:57:16;;;;;;;3.43;3.13;;;17.40;99.90;;;;;;5035501;28;20452;-54
2022/07/18 02:59:43;;;;;;;3.10;2.20;;;17.40;99.90;;;;;;5034737;28;20525;-53
2022/07/18 03:02:10;;;;;;;5.37;2.27;;;17.40;99.90;;;;;;5035298;28;20485;-53
2022/07/18 03:04:38;;;;;;;2.30;2.10;;;17.30;99.90;;;;;;5034738;28;20499;-54
2022/07/18 03:07:05;;;;;;;3.80;2.00;;;17.40;99.90;;;;;;5034908;28;20436;-52
2022/07/18 03:09:31;;;;;;;3.73;1.70;;;17.30;99.90;;;;;;5034765;28;20485;-54
2022/07/18 03:12:00;;;;;;;2.37;1.60;;;17.30;99.90;;;;;;5034792;28;20500;-53
2022/07/18 03:14:27;;;;;;;6.40;2.30;;;17.30;99.90;;;;;;5034949;28;20496;-53
2022/07/18 03:16:54;;;;;;;3.73;2.23;;;17.20;99.90;;;;;;5035147;28;20457;-53
2022/07/18 03:19:21;;;;;;;3.93;2.07;;;17.20;99.90;;;;;;5034806;28;20528;-54
2022/07/18 03:21:49;;;;;;;2.23;1.90;;;17.20;99.90;;;;;;5035322;28;20508;-55
2022/07/18 03:24:16;;;;;;;2.67;1.90;;;17.20;99.90;;;;;;5035349;28;20512;-55
2022/07/18 03:26:43;;;;;;;2.00;1.80;;;17.20;99.90;;;;;;5034355;28;20493;-55
2022/07/18 03:29:11;;;;;;;4.67;2.43;;;17.20;99.90;;;;;;5034348;28;20429;-52
2022/07/18 03:31:38;;;;;;;5.83;2.53;;;17.20;99.90;;;;;;5035124;28;20508;-54
2022/07/18 03:34:05;;;;;;;5.63;2.37;;;17.20;99.90;;;;;;5035145;28;20479;-55
2022/07/18 03:36:31;;;;;;;2.87;1.93;;;17.20;99.90;;;;;;5035270;28;20461;-54
2022/07/18 03:39:00;;;;;;;2.73;2.40;;;17.30;99.90;;;;;;5035084;28;20473;-55
2022/07/18 03:41:26;;;;;;;2.30;1.93;;;17.20;99.90;;;;;;5048411;23;20524;-51
2022/07/18 03:43:53;;;;;;;8.63;2.80;;;17.20;99.90;;;;;;5037626;28;20444;-53
2022/07/18 03:46:20;;;;;;;6.87;2.20;;;17.20;99.90;;;;;;5037077;28;20465;-54
2022/07/18 03:48:47;;;;;;;3.37;2.17;;;17.20;99.90;;;;;;5037151;28;20484;-51
2022/07/18 03:51:14;;;;;;;2.13;1.93;;;17.20;99.90;;;;;;5036434;28;20464;-44
2022/07/18 03:53:41;;;;;;;4.20;2.83;;;17.20;99.90;;;;;;5036869;28;20441;-47
2022/07/18 03:56:09;;;;;;;3.63;2.77;;;17.30;99.90;;;;;;5036724;28;20452;-50
2022/07/18 03:58:36;;;;;;;3.50;2.13;;;17.30;99.90;;;;;;5036569;28;20444;-49
2022/07/18 04:01:03;;;;;;;5.40;2.20;;;17.20;99.90;;;;;;5036481;28;20476;-53
2022/07/18 04:03:30;;;;;;;2.40;2.20;;;17.30;99.90;;;;;;5036397;28;20455;-46
2022/07/18 04:05:57;;;;;;;2.93;2.53;;;17.20;99.90;;;;;;5028288;28;20461;-49
2022/07/18 04:08:24;;;;;;;4.67;2.20;;;17.30;99.90;;;;;;5027563;28;20681;-46
2022/07/18 04:10:53;;;;;;;4.13;2.37;;;17.30;99.90;;;;;;5036487;28;20473;-50
2022/07/18 04:13:21;;;;;;;6.93;2.60;;;17.30;99.90;;;;;;5036474;28;20456;-44
2022/07/18 04:15:48;;;;;;;2.47;2.00;;;17.30;99.90;;;;;;5036233;28;20775;-46
2022/07/18 04:18:14;;;;;;;7.17;2.20;;;17.30;99.90;;;;;;5036456;28;20421;-46
2022/07/18 04:20:41;;;;;;;3.50;2.00;;;17.30;99.90;;;;;;5036620;28;20457;-40
2022/07/18 04:23:10;;;;;;;4.50;2.20;;;17.30;99.90;;;;;;5026726;28;20437;-47
2022/07/18 04:25:41;;;;;;;3.97;2.40;;;17.30;99.90;;;;;;5036892;28;20441;-45
2022/07/18 04:28:11;;;;;;;6.20;2.20;;;17.30;99.90;;;;;;5036124;28;20844;-44
2022/07/18 04:30:40;;;;;;;4.20;2.33;;;17.30;99.90;;;;;;5036033;28;20519;-46
2022/07/18 04:33:10;;;;;;;5.50;2.17;;;17.30;99.90;;;;;;5040134;28;20480;-44
2022/07/18 04:35:39;;;;;;;7.60;2.77;;;17.30;99.90;;;;;;5027996;28;20487;-44
2022/07/18 04:38:07;;;;;;;3.73;2.53;;;17.30;99.90;;;;;;5040193;28;20429;-42
2022/07/18 04:40:34;;;;;;;3.80;2.60;;;17.40;99.90;;;;;;5040016;28;20836;-46
2022/07/18 04:43:01;;;;;;;2.27;2.07;;;17.40;99.90;;;;;;5040032;28;20475;-48
2022/07/18 04:45:28;;;;;;;5.90;2.67;;;17.50;99.90;;;;;;5039621;28;20441;-47
2022/07/18 04:47:56;;;;;;;3.90;3.07;;;17.50;99.90;;;;;;5039490;28;20495;-44
2022/07/18 04:50:24;;;;;;;4.27;2.43;;;17.50;99.90;;;;;;5039928;28;20444;-47
2022/07/18 04:52:51;;;;;;;5.40;2.63;;;17.50;99.90;;;;;;5039738;28;20484;-44
2022/07/18 04:55:21;;;;;;;3.60;2.57;;;17.50;99.90;;;;;;5040069;28;20508;-46
2022/07/18 04:57:48;;;;;;;4.30;2.20;;;17.60;99.90;;;;;;5040038;28;20449;-52
2022/07/18 05:00:17;;;;;;;4.40;3.10;;;17.70;99.90;;;;;;5040098;28;20445;-49
2022/07/18 05:02:45;;;;;;;5.83;2.57;;;17.70;99.90;;;;;;5030110;28;20564;-48
2022/07/18 05:05:15;;;;;;;2.43;1.83;;;17.80;99.90;;;;;;5040006;28;20456;-46
2022/07/18 05:07:44;;;;;;;4.53;2.50;;;17.80;99.90;;;;;;5039969;28;20449;-45
2022/07/18 05:10:15;;;;;;;5.47;3.13;;;17.90;99.90;;;;;;5039490;28;20444;-46
2022/07/18 05:12:44;;;;;;;4.50;3.00;;;17.90;99.90;;;;;;5039680;28;20560;-47
2022/07/18 05:15:16;;;;;;;3.20;2.53;;;18.00;99.90;;;;;;5039856;28;20508;-46
2022/07/18 05:17:43;;;;;;;5.23;2.50;;;18.00;99.90;;;;;;5039497;28;20536;-53
2022/07/18 05:20:14;;;;;;;3.60;3.00;;;18.10;99.90;;;;;;5039335;28;20456;-50
2022/07/18 05:22:41;;;;;;;2.87;2.50;;;18.10;99.90;;;;;;5039245;28;20455;-46
2022/07/18 05:25:10;;;;;;;4.70;2.97;;;18.20;99.90;;;;;;5034424;28;20505;-48
2022/07/18 05:27:37;;;;;;;3.97;2.90;;;18.20;99.90;;;;;;5035823;28;20541;-50
2022/07/18 05:30:04;;;;;;;5.53;3.33;;;18.30;99.90;;;;;;5039376;28;20516;-46
2022/07/18 05:32:31;;;;;;;4.50;2.47;;;18.30;99.90;;;;;;5039262;28;20476;-48
2022/07/18 05:34:58;;;;;;;7.60;3.30;;;18.40;99.90;;;;;;5039111;28;20432;-48
2022/07/18 05:37:27;;;;;;;6.23;2.50;;;18.50;99.90;;;;;;5039570;28;20492;-52
2022/07/18 05:39:54;;;;;;;3.30;2.77;;;18.50;99.90;;;;;;5040032;28;20493;-46
2022/07/18 05:42:21;;;;;;;5.23;2.50;;;18.60;99.90;;;;;;5039281;28;20437;-49
2022/07/18 05:44:48;;;;;;;5.10;2.50;;;18.70;99.90;;;;;;5030282;28;20516;-48
2022/07/18 05:47:14;;;;;;;7.80;3.37;;;18.70;99.90;;;;;;5036860;28;20445;-45
2022/07/18 05:49:41;;;;;;;5.90;2.67;;;18.80;99.90;;;;;;5039108;28;20429;-46
2022/07/18 05:52:08;;;;;;;8.10;2.80;;;18.90;99.90;;;;;;5038688;28;20467;-46
2022/07/18 05:54:36;;;;;;;4.83;2.90;;;19.00;99.90;;;;;;5038457;28;20447;-48
2022/07/18 05:57:03;;;;;;;2.83;2.10;;;19.00;99.90;;;;;;5038397;28;20449;-50
2022/07/18 05:59:30;;;;;;;4.03;2.20;;;19.10;99.90;;;;;;5038340;28;20492;-49
2022/07/18 06:01:57;;;;;;;3.20;2.53;;;19.20;99.90;;;;;;5038277;28;20445;-47
2022/07/18 06:04:24;;;;;;;3.23;2.50;;;19.30;99.90;;;;;;5038370;28;20509;-47
2022/07/18 06:06:51;;;;;;;2.73;2.30;;;19.40;99.90;;;;;;5038336;28;20532;-48
2022/07/18 06:09:18;;;;;;;5.70;2.73;;;19.50;99.90;;;;;;5039289;28;20475;-48
2022/07/18 06:11:46;;;;;;;2.70;2.37;;;19.60;99.90;;;;;;5027514;28;20445;-47
2022/07/18 06:14:13;;;;;;;5.03;2.07;;;19.60;99.90;;;;;;5038392;28;20507;-49
2022/07/18 06:16:42;;;;;;;4.90;2.70;;;19.70;99.90;;;;;;5037779;28;20474;-47
2022/07/18 06:19:08;;;;;;;8.10;5.37;;;19.80;99.90;;;;;;5037632;28;20481;-48
2022/07/18 06:21:35;;;;;;;3.83;3.43;;;19.90;99.90;;;;;;5037278;28;20457;-49
2022/07/18 06:24:02;;;;;;;7.23;3.73;;;20.00;99.90;;;;;;5038311;28;20469;-46
2022/07/18 06:26:29;;;;;;;6.63;2.80;;;20.10;99.90;;;;;;5038702;28;20508;-51
2022/07/18 06:28:57;;;;;;;4.77;3.57;;;20.20;99.90;;;;;;5027395;28;20552;-46
2022/07/18 06:31:24;;;;;;;4.50;1.93;;;20.30;99.90;;;;;;5037518;28;20464;-48
2022/07/18 06:33:53;;;;;;;3.40;2.77;;;20.40;99.90;;;;;;5037635;28;20477;-47
2022/07/18 06:36:23;;;;;;;4.10;2.30;;;20.50;99.90;;;;;;5037751;28;20445;-50
2022/07/18 06:38:53;;;;;;;4.43;2.27;;;20.60;99.90;;;;;;5038208;28;20534;-51
2022/07/18 06:41:21;;;;;;;7.60;2.43;;;20.70;99.90;;;;;;5036635;28;20517;-46
2022/07/18 06:43:47;;;;;;;2.93;1.90;;;20.80;99.90;;;;;;5037695;28;20493;-46
2022/07/18 06:46:15;;;;;;;3.47;2.20;;;20.90;99.90;;;;;;5037993;28;20440;-52
2022/07/18 06:48:42;;;;;;;4.43;2.40;;;21.00;99.90;;;;;;5038336;28;20497;-50
2022/07/18 06:51:09;;;;;;;3.27;2.07;;;21.10;99.90;;;;;;5038007;28;20452;-47
2022/07/18 06:53:38;;;;;;;6.37;2.27;;;21.20;99.90;;;;;;5037169;28;20520;-45
2022/07/18 06:56:05;;;;;;;3.13;2.43;;;21.30;99.90;;;;;;5037858;28;20430;-46
2022/07/18 06:58:32;;;;;;;8.27;2.67;;;21.30;99.90;;;;;;5037459;28;20429;-45
2022/07/18 07:00:59;;;;;;;8.63;2.47;;;21.40;99.90;;;;;;5037426;28;20440;-51
2022/07/18 07:03:29;;;;;;;5.90;3.23;;;21.50;99.90;;;;;;5037893;28;20444;-45
2022/07/18 07:05:56;;;;;;;12.43;2.83;;;21.60;99.90;;;;;;5037439;28;20501;-46
2022/07/18 07:08:23;;;;;;;8.33;2.37;;;21.70;99.90;;;;;;5037839;28;20445;-46
2022/07/18 07:10:51;;;;;;;5.50;3.10;;;21.80;99.90;;;;;;5037861;28;20448;-48
2022/07/18 07:13:18;;;;;;;4.10;1.97;;;22.00;99.90;;;;;;5037100;28;20471;-57
2022/07/18 07:15:45;;;;;;;3.40;1.60;;;22.10;99.90;;;;;;5037012;28;20473;-46
2022/07/18 07:18:12;;;;;;;3.30;2.13;;;22.20;99.90;;;;;;5037155;28;20475;-47
2022/07/18 07:20:40;;;;;;;2.37;2.17;;;22.40;99.90;;;;;;5036557;28;20509;-44
2022/07/18 07:23:08;;;;;;;2.70;1.90;;;22.70;99.90;;;;;;5035102;28;20520;-46
2022/07/18 07:25:37;;;;;;;3.43;2.17;;;23.20;99.90;;;;;;5037802;28;20467;-46
2022/07/18 07:28:04;;;;;;;2.87;2.00;;;24.50;99.50;;;;;;5035643;28;20444;-51
2022/07/18 07:30:32;;;;;;;3.20;1.97;;;26.10;94.80;;;;;;5036786;28;20490;-47
2022/07/18 07:32:59;;;;;;;3.93;1.47;;;28.10;89.20;;;;;;5036082;28;20481;-49
2022/07/18 07:35:26;;;;;;;4.83;2.20;;;30.00;73.40;;;;;;5035283;28;20493;-49
2022/07/18 07:37:57;;;;;;;2.80;1.80;;;31.40;64.40;;;;;;5035431;28;20453;-49
2022/07/18 07:40:26;;;;;;;2.57;1.60;;;32.80;57.60;;;;;;5036688;28;20457;-53
2022/07/18 07:43:04;;;;;;;4.33;1.80;;;33.90;53.30;;;;;;5035345;28;20513;-46
2022/07/18 07:45:31;;;;;;;5.07;1.60;;;34.00;51.00;;;;;;5034675;28;20524;-48
2022/07/18 07:47:58;;;;;;;2.67;2.00;;;34.10;49.60;;;;;;5034322;28;20465;-48
2022/07/18 07:50:25;;;;;;;5.40;2.30;;;34.40;48.90;;;;;;5031562;28;20479;-50
2022/07/18 07:52:53;;;;;;;2.20;1.90;;;35.10;47.60;;;;;;5035666;28;20533;-48
2022/07/18 07:55:20;;;;;;;4.90;2.37;;;35.40;46.70;;;;;;5036113;28;20507;-45
2022/07/18 07:57:47;;;;;;;3.80;1.93;;;35.50;45.60;;;;;;5035585;28;20437;-50
2022/07/18 08:00:15;;;;;;;3.67;2.10;;;35.70;45.00;;;;;;5036294;28;20457;-42
2022/07/18 08:02:53;;;;;;;3.70;2.00;;;35.90;44.20;;;;;;5029717;28;20459;-49
2022/07/18 08:05:19;;;;;;;3.83;1.87;;;35.80;42.90;;;;;;5033238;28;20477;-52
2022/07/18 08:07:46;;;;;;;2.40;1.47;;;35.50;43.10;;;;;;5033223;28;20484;-50
2022/07/18 08:10:15;;;;;;;4.23;2.40;;;35.60;43.20;;;;;;5031711;28;20500;-50
2022/07/18 08:12:42;;;;;;;3.10;2.10;;;35.70;43.20;;;;;;5035269;28;20461;-53
2022/07/18 08:15:10;;;;;;;4.47;2.40;;;35.80;42.50;;;;;;5035470;28;20497;-47
2022/07/18 08:17:37;;;;;;;2.80;2.50;;;35.90;42.30;;;;;;5033761;28;20452;-47
2022/07/18 08:20:05;;;;;;;7.43;2.57;;;35.80;41.80;;;;;;5031141;28;20460;-45
2022/07/18 08:22:32;;;;;;;4.70;2.10;;;35.60;42.10;;;;;;5035560;28;20528;-50
2022/07/18 08:24:59;;;;;;;4.00;2.70;;;35.80;41.30;;;;;;5035597;28;20445;-45
2022/07/18 08:27:27;;;;;;;3.33;2.10;;;36.00;41.00;;;;;;5036567;28;20437;-51
2022/07/18 08:29:54;;;;;;;5.83;2.47;;;35.80;41.20;;;;;;5036578;28;20441;-45
2022/07/18 08:32:21;;;;;;;4.43;2.47;;;35.70;40.80;;;;;;5036745;28;20456;-47
2022/07/18 08:34:48;;;;;;;4.23;2.47;;;35.40;41.30;;;;;;5036577;28;20480;-49
2022/07/18 08:37:15;;;;;;;5.50;2.87;;;35.10;41.30;;;;;;5036983;28;20452;-45
2022/07/18 08:39:42;;;;;;;2.87;2.27;;;34.80;41.70;;;;;;5036685;28;20456;-48
2022/07/18 08:42:10;;;;;;;4.20;2.47;;;33.70;42.60;;;;;;5036276;28;20457;-44
2022/07/18 08:44:40;;;;;;;3.63;2.60;;;32.90;44.00;;;;;;5036719;28;20421;-45
2022/07/18 08:47:09;;;;;;;5.33;2.60;;;32.10;44.90;;;;;;5036087;28;20437;-51
2022/07/18 08:49:36;;;;;;;3.83;3.07;;;31.30;44.80;;;;;;5033936;28;20449;-51
2022/07/18 08:52:05;;;;;;;4.27;2.27;;;30.60;45.60;;;;;;5034533;28;20467;-50
2022/07/18 08:54:36;;;;;;;3.07;2.50;;;30.20;46.80;;;;;;5034295;28;20488;-47
2022/07/18 08:57:04;;;;;;;4.37;3.00;;;30.20;47.00;;;;;;5034492;28;20421;-52
2022/07/18 08:59:31;;;;;;;6.00;3.30;;;30.30;47.20;;;;;;5034169;28;20472;-47
2022/07/18 09:01:59;;;;;;;3.77;2.20;;;30.40;47.20;;;;;;5033995;28;20465;-45
2022/07/18 09:04:33;;;;;;;5.53;3.33;;;30.70;47.10;;;;;;5034264;28;20449;-47
2022/07/18 09:07:00;;;;;;;5.63;3.60;;;30.90;46.70;;;;;;5033996;28;20473;-46
2022/07/18 09:09:27;;;;;;;4.60;3.57;;;31.00;46.40;;;;;;5033307;28;20425;-51
2022/07/18 09:11:56;;;;;;;5.20;3.70;;;31.00;46.00;;;;;;5033986;28;20445;-51
2022/07/18 09:14:31;;;;;;;8.13;4.40;;;31.10;45.80;;;;;;5034268;28;20484;-45
2022/07/18 09:17:09;;;;;;;6.23;3.37;;;31.90;44.60;;;;;;5034998;28;20468;-46
2022/07/18 09:19:37;;;;;;;4.53;3.23;;;32.20;43.70;;;;;;5038301;28;20439;-47
2022/07/18 09:22:18;;;;;;;5.13;3.53;;;32.40;43.70;;;;;;5037310;28;20469;-50
2022/07/18 09:24:57;;;;;;;3.50;3.20;;;32.40;43.70;;;;;;5037003;28;20437;-47
2022/07/18 09:27:30;;;;;;;5.10;3.33;;;32.10;43.30;;;;;;5037120;28;20491;-46
2022/07/18 09:30:29;;;;;;;4.53;4.07;;;32.20;43.70;;;;;;5037884;28;20445;-48
2022/07/18 09:33:10;;;;;;;3.27;2.93;;;32.70;43.00;;;;;;5037543;28;20476;-46
2022/07/18 09:35:42;;;;;;;6.20;3.40;;;33.00;42.20;;;;;;5034686;28;20906;-46
2022/07/18 09:38:14;;;;;;;7.00;3.47;;;33.00;43.30;;;;;;5026306;28;20444;-50
2022/07/18 09:40:43;;;;;;;5.33;3.40;;;32.80;43.10;;;;;;5034685;28;20434;-46
2022/07/18 09:43:12;;;;;;;5.57;3.70;;;32.80;43.90;;;;;;5035401;28;20508;-47
2022/07/18 09:45:41;;;;;;;6.70;4.50;;;32.90;43.90;;;;;;5035625;28;20465;-47
2022/07/18 09:48:11;;;;;;;8.23;5.57;;;33.30;42.20;;;;;;5037070;28;20456;-47
2022/07/18 09:50:41;;;;;;;7.10;5.70;;;33.40;40.10;;;;;;5036943;28;20433;-47
2022/07/18 09:53:11;;;;;;;9.23;5.73;;;33.60;41.40;;;;;;5034584;28;20465;-50
2022/07/18 09:55:44;;;;;;;6.00;4.57;;;33.80;39.80;;;;;;5037476;28;20460;-49
2022/07/18 09:58:12;;;;;;;3.70;2.63;;;33.80;40.90;;;;;;5034228;28;20532;-53
2022/07/18 10:00:40;;;;;;;3.13;2.83;;;33.70;42.00;;;;;;5035048;28;20432;-48
2022/07/18 10:03:09;;;;;;;3.33;2.90;;;33.80;42.50;;;;;;5035156;28;20453;-51
2022/07/18 10:05:38;;;;;;;3.40;3.10;;;34.20;42.60;;;;;;5036459;28;20568;-47
2022/07/18 10:08:07;;;;;;;4.63;3.93;;;34.50;42.00;;;;;;5036832;28;20536;-46
2022/07/18 10:10:34;;;;;;;4.00;3.33;;;34.60;42.10;;;;;;5036696;28;20460;-45
2022/07/18 10:13:02;;;;;;;4.20;2.90;;;34.60;42.00;;;;;;5035857;28;20469;-48
2022/07/18 10:15:31;;;;;;;4.23;3.33;;;34.50;42.40;;;;;;5035366;28;20515;-44
2022/07/18 10:17:59;;;;;;;4.77;2.60;;;34.50;42.00;;;;;;5035379;28;20465;-45
2022/07/18 10:20:31;;;;;;;4.73;3.23;;;34.50;42.30;;;;;;5035170;28;20468;-49
2022/07/18 10:23:02;;;;;;;4.70;3.60;;;34.50;41.70;;;;;;5035106;28;20547;-45
2022/07/18 10:25:29;;;;;;;4.20;3.70;;;34.30;42.10;;;;;;5033420;28;20461;-47
2022/07/18 10:28:08;;;;;;;3.97;3.43;;;34.10;41.90;;;;;;5035840;28;20514;-51
2022/07/18 10:30:38;;;;;;;4.63;2.90;;;34.20;42.70;;;;;;5033405;28;20521;-46
2022/07/18 10:33:25;;;;;;;7.27;3.53;;;34.00;42.30;;;;;;5034073;28;20469;-47
2022/07/18 10:36:05;;;;;;;17.20;4.83;;;34.00;42.80;;;;;;5034174;28;20449;-46
2022/07/18 10:38:32;;;;;;;6.63;3.57;;;33.80;43.10;;;;;;5035408;28;20532;-51
2022/07/18 10:41:10;;;;;;;6.37;3.17;;;33.60;43.60;;;;;;5033241;28;20447;-48
2022/07/18 10:43:42;;;;;;;10.43;3.20;;;33.40;43.90;;;;;;5035175;28;20473;-50
2022/07/18 10:46:10;;;;;;;4.90;2.23;;;33.10;44.30;;;;;;5029435;28;20425;-48
2022/07/18 10:48:49;;;;;;;3.97;2.90;;;33.00;43.60;;;;;;5032065;28;20461;-46
2022/07/18 10:51:18;;;;;;;6.57;3.30;;;32.70;43.80;;;;;;5032445;28;20489;-44
2022/07/18 10:54:06;;;;;;;7.20;3.30;;;32.50;44.30;;;;;;5032069;28;20511;-48
2022/07/18 10:57:09;;;;;;;3.20;2.90;;;32.20;45.00;;;;;;5032775;28;20425;-49
2022/07/18 10:59:37;;;;;;;4.20;3.80;;;31.90;45.00;;;;;;5035165;28;20452;-47
2022/07/18 11:02:07;;;;;;;5.40;3.50;;;31.60;45.90;;;;;;5034450;28;20514;-51
2022/07/18 11:04:39;;;;;;;4.60;3.63;;;31.50;45.60;;;;;;5033751;28;20449;-49
2022/07/18 11:07:12;;;;;;;4.00;3.07;;;31.40;45.60;;;;;;5034823;28;20457;-48
2022/07/18 11:09:42;;;;;;;4.37;2.90;;;31.40;45.40;;;;;;5034899;28;20429;-48
2022/07/18 11:12:20;;;;;;;3.60;3.10;;;31.30;44.80;;;;;;5034200;28;20447;-49
2022/07/18 11:15:02;;;;;;;4.77;3.20;;;31.30;45.10;;;;;;5034309;28;20476;-45
2022/07/18 11:18:04;;;;;;;4.67;3.37;;;31.20;46.10;;;;;;5034273;28;20458;-55
2022/07/18 11:20:42;;;;;;;4.40;3.03;;;31.10;45.10;;;;;;5031617;28;20487;-50
2022/07/18 11:23:19;;;;;;;4.13;3.17;;;31.20;45.10;;;;;;5035639;28;20472;-46
2022/07/18 11:25:47;;;;;;;4.87;3.03;;;31.20;45.80;;;;;;5032660;28;20484;-52
2022/07/18 11:28:14;;;;;;;7.80;3.33;;;31.30;45.50;;;;;;5029992;28;20490;-51
2022/07/18 11:30:42;;;;;;;3.77;3.17;;;31.10;45.10;;;;;;5032282;28;20425;-47
2022/07/18 11:33:25;;;;;;;3.67;3.27;;;30.80;45.20;;;;;;5033646;28;20453;-46
2022/07/18 11:35:52;;;;;;;4.50;3.27;;;30.60;45.40;;;;;;5030785;28;20520;-50
2022/07/18 11:38:21;;;;;;;4.73;3.70;;;30.70;45.10;;;;;;5021525;28;20464;-50
2022/07/18 11:40:49;;;;;;;3.50;3.20;;;30.70;44.60;;;;;;5029338;28;20441;-49
2022/07/18 11:43:21;;;;;;;4.37;3.40;;;30.60;44.90;;;;;;5033978;28;20457;-52
2022/07/18 11:45:48;;;;;;;4.63;2.83;;;30.50;44.80;;;;;;5034960;28;20429;-47
2022/07/18 11:48:23;;;;;;;3.70;3.30;;;30.50;45.10;;;;;;5032355;28;20451;-47
2022/07/18 11:50:50;;;;;;;5.40;3.30;;;30.60;45.80;;;;;;5035080;28;20448;-54
2022/07/18 11:53:17;;;;;;;4.47;3.83;;;30.40;44.50;;;;;;5035481;28;20452;-49
2022/07/18 11:55:45;;;;;;;4.73;3.77;;;30.30;45.00;;;;;;5034963;28;20521;-53
2022/07/18 11:58:14;;;;;;;6.40;3.93;;;30.20;45.00;;;;;;5035403;28;20525;-53
2022/07/18 12:00:42;;;;;;;4.47;4.00;;;30.20;44.90;;;;;;5034729;28;20437;-49
2022/07/18 12:03:11;;;;;;;4.67;4.00;;;30.10;45.40;;;;;;5034561;28;20445;-52
2022/07/18 12:05:40;;;;;;;7.73;4.20;;;30.00;45.20;;;;;;5034923;28;20468;-52
2022/07/18 12:08:34;;;;;;;4.37;3.63;;;29.90;46.00;;;;;;5034618;28;20504;-54
2022/07/18 12:11:11;;;;;;;4.70;3.50;;;29.90;45.30;;;;;;5034688;28;20433;-52
2022/07/18 12:13:42;;;;;;;7.30;4.00;;;29.90;45.90;;;;;;5034562;28;20441;-53
2022/07/18 12:16:21;;;;;;;4.07;3.77;;;29.90;45.50;;;;;;5034817;28;20509;-53
2022/07/18 12:18:49;;;;;;;3.77;3.37;;;29.80;45.50;;;;;;5034496;28;20440;-54
2022/07/18 12:21:16;;;;;;;5.60;3.33;;;29.80;45.50;;;;;;5034662;28;20448;-49
2022/07/18 12:23:43;;;;;;;5.40;3.10;;;29.80;46.30;;;;;;5034770;28;20453;-53
2022/07/18 12:26:27;;;;;;;3.70;3.10;;;29.90;46.50;;;;;;5034288;28;20456;-58
2022/07/18 12:29:05;;;;;;;4.77;3.80;;;30.00;46.00;;;;;;5034302;28;20414;-53
2022/07/18 12:31:42;;;;;;;3.13;2.83;;;30.10;46.10;;;;;;5034630;28;20501;-49
2022/07/18 12:34:10;;;;;;;6.43;3.63;;;30.20;45.80;;;;;;5034993;28;20475;-52
2022/07/18 12:36:52;;;;;;;3.30;3.00;;;30.20;46.10;;;;;;5035010;28;20426;-53
2022/07/18 12:39:30;;;;;;;4.63;2.93;;;30.10;45.60;;;;;;5034907;28;20426;-52
2022/07/18 12:42:00;;;;;;;6.60;4.23;;;30.00;45.70;;;;;;5035189;28;20461;-54
2022/07/18 12:44:27;;;;;;;4.50;3.30;;;29.80;45.60;;;;;;5034482;28;20449;-51
2022/07/18 12:46:54;;;;;;;4.17;3.50;;;29.70;46.30;;;;;;5035117;28;20415;-58
2022/07/18 12:49:22;;;;;;;5.03;3.77;;;29.60;46.10;;;;;;5034808;28;20483;-56
2022/07/18 12:51:50;;;;;;;4.30;3.40;;;29.70;46.50;;;;;;5034796;28;20499;-56
2022/07/18 12:54:17;;;;;;;4.40;2.90;;;29.80;47.40;;;;;;5037845;28;20468;-49
2022/07/18 12:56:44;;;;;;;3.43;3.00;;;29.80;46.30;;;;;;5038172;28;20445;-55
2022/07/18 12:59:13;;;;;;;8.13;3.23;;;29.90;46.40;;;;;;5037992;28;20444;-49